Eau Pleine, Wisconsin
Current Conditions -  °F | °C
As of 2:15 PM on Saturday 20 Dec 2014 (Local Time) from KSTE Reporting Station
Overcast Overcast  
Wind Chill: 24°   Ceiling: 1400
Heat Index: 29°   Visibility: 10mi
Dew Point: 24°   Wind: 5mph
Humidity: 80%   Direction: 180°S
Pressure: 30.19"   Gusts: NA
Location:  44.6097°N, 89.7558°W
Report Text: KSTE 202015Z AUTO 18004KT 10SM BKN014 OVC020 M02/M05 A3019 RMK AO2 T10161046
Loading
Personal Weather Stations






























Interactive Weather Map New forecast layout! Learn more

10-Day Weather Forecast

Advertisements
Track Severe Weather on mobile